createdAt,value
2023-02-13T00:02:03.480Z,43.40
2023-02-13T00:04:48.243Z,42.84
2023-02-13T00:07:33.044Z,43.48
2023-02-13T00:10:18.039Z,43.66
2023-02-13T00:13:02.870Z,43.53
2023-02-13T00:15:47.862Z,43.29
2023-02-13T00:18:32.764Z,44.01
2023-02-13T00:21:17.541Z,43.83
2023-02-13T00:24:02.334Z,44.19
2023-02-13T00:26:47.328Z,43.14
2023-02-13T00:29:32.223Z,44.17
2023-02-13T00:32:17.205Z,43.69
2023-02-13T00:35:02.044Z,44.64
2023-02-13T00:37:47.000Z,45.89
2023-02-13T00:40:31.911Z,44.67
2023-02-13T00:43:16.656Z,45.23
2023-02-13T00:46:01.633Z,44.89
2023-02-13T00:48:46.498Z,44.90
2023-02-13T00:51:31.335Z,46.38
2023-02-13T00:54:16.265Z,47.05
2023-02-13T00:57:01.063Z,46.41
2023-02-13T00:59:46.246Z,46.67
2023-02-13T01:02:31.133Z,46.92
2023-02-13T01:05:16.099Z,45.86
2023-02-13T01:08:00.936Z,46.05
2023-02-13T01:10:45.888Z,47.32
2023-02-13T01:13:30.791Z,46.63
2023-02-13T01:16:15.862Z,46.23
2023-02-13T01:19:01.293Z,46.09
2023-02-13T01:21:46.232Z,46.50
2023-02-13T01:24:31.007Z,46.51
2023-02-13T01:27:17.215Z,46.40
2023-02-13T01:30:02.727Z,46.53
2023-02-13T01:32:47.587Z,47.22
2023-02-13T01:35:32.540Z,47.11
2023-02-13T01:38:17.558Z,46.95
2023-02-13T01:41:02.476Z,46.96
2023-02-13T01:43:47.323Z,48.21
2023-02-13T01:46:32.265Z,46.96
2023-02-13T01:49:17.050Z,47.32
2023-02-13T01:52:01.982Z,48.10
2023-02-13T01:54:46.828Z,48.28
2023-02-13T01:57:31.613Z,47.87
2023-02-13T02:00:16.517Z,47.77
2023-02-13T02:03:01.440Z,48.07
2023-02-13T02:05:46.309Z,47.73
2023-02-13T02:08:31.366Z,47.58
2023-02-13T02:11:16.276Z,48.10
2023-02-13T02:14:01.442Z,48.14
2023-02-13T02:16:46.269Z,47.97
2023-02-13T02:19:31.115Z,48.68
2023-02-13T02:22:15.922Z,48.48
2023-02-13T02:25:00.910Z,48.51
2023-02-13T02:27:45.881Z,50.57
2023-02-13T02:30:30.730Z,49.59
2023-02-13T02:33:15.564Z,49.08
2023-02-13T02:36:00.336Z,49.08
2023-02-13T02:38:45.385Z,50.10
2023-02-13T02:41:30.307Z,50.81
2023-02-13T02:44:15.148Z,50.53
2023-02-13T02:46:59.882Z,50.52
2023-02-13T02:49:44.780Z,51.10
2023-02-13T02:52:29.670Z,50.92
2023-02-13T02:55:14.566Z,51.41
2023-02-13T02:57:59.468Z,52.72
2023-02-13T03:00:44.491Z,51.60
2023-02-13T03:03:29.322Z,51.51
2023-02-13T03:06:14.297Z,51.92
2023-02-13T03:08:59.134Z,51.08
2023-02-13T03:11:44.052Z,49.91
2023-02-13T03:14:28.928Z,50.04
2023-02-13T03:17:13.834Z,51.80
2023-02-13T03:19:58.690Z,49.74
2023-02-13T03:22:43.601Z,50.73
2023-02-13T03:25:28.450Z,51.14
2023-02-13T03:28:13.222Z,51.45
2023-02-13T03:30:58.381Z,51.54
2023-02-13T03:33:43.366Z,52.31
2023-02-13T03:36:28.156Z,50.74
2023-02-13T03:39:12.935Z,50.87
2023-02-13T03:41:57.824Z,51.25
2023-02-13T03:44:42.638Z,51.42
2023-02-13T03:47:27.685Z,51.58
2023-02-13T03:50:12.400Z,51.76
2023-02-13T03:52:57.264Z,50.31
2023-02-13T03:55:42.135Z,50.04
2023-02-13T03:58:27.050Z,51.09
2023-02-13T04:01:11.785Z,51.74
2023-02-13T04:03:56.657Z,49.66
2023-02-13T04:06:41.629Z,51.00
2023-02-13T04:09:26.610Z,51.47
2023-02-13T04:12:11.698Z,51.72
2023-02-13T04:14:56.528Z,50.67
2023-02-13T04:17:41.451Z,51.60
2023-02-13T04:20:26.303Z,51.33
2023-02-13T04:23:11.326Z,51.78
2023-02-13T04:25:56.184Z,50.63
2023-02-13T04:28:41.343Z,50.84
2023-02-13T04:31:26.849Z,50.96
2023-02-13T04:34:12.062Z,51.83
2023-02-13T04:36:57.045Z,50.33
2023-02-13T04:39:41.976Z,51.68
2023-02-13T04:42:27.056Z,52.21
2023-02-13T04:45:11.988Z,52.74
2023-02-13T04:47:56.975Z,52.32
2023-02-13T04:50:41.823Z,52.31
2023-02-13T04:53:26.744Z,51.54
2023-02-13T04:56:11.668Z,52.30
2023-02-13T04:58:56.649Z,52.19
2023-02-13T05:01:41.716Z,52.56
2023-02-13T05:04:26.567Z,52.80
2023-02-13T05:07:11.530Z,53.65
2023-02-13T05:09:56.395Z,52.46
2023-02-13T05:12:41.285Z,53.63
2023-02-13T05:15:26.649Z,51.84
2023-02-13T05:18:11.418Z,53.18
2023-02-13T05:20:56.572Z,53.53
2023-02-13T05:23:41.841Z,51.91
2023-02-13T05:26:26.674Z,52.87
2023-02-13T05:29:11.384Z,54.22
2023-02-13T05:31:56.265Z,54.00
2023-02-13T05:34:41.482Z,53.69
2023-02-13T05:37:26.511Z,54.22
2023-02-13T05:40:11.280Z,54.78
2023-02-13T05:42:56.042Z,54.66
2023-02-13T05:45:40.915Z,53.43
2023-02-13T05:48:25.741Z,54.06
2023-02-13T05:51:10.647Z,53.29
2023-02-13T05:53:55.556Z,53.05
2023-02-13T05:56:40.453Z,52.98
2023-02-13T05:59:25.288Z,53.89
2023-02-13T06:02:10.181Z,52.46
2023-02-13T06:04:55.022Z,53.12
2023-02-13T06:07:41.199Z,55.39
2023-02-13T06:10:26.434Z,53.66
2023-02-13T06:13:11.300Z,54.33
2023-02-13T06:15:56.271Z,54.14
2023-02-13T06:18:41.184Z,54.73
2023-02-13T06:21:26.242Z,53.16
2023-02-13T06:24:11.191Z,54.46
2023-02-13T06:26:56.088Z,54.59
2023-02-13T06:29:41.082Z,55.69
2023-02-13T06:32:25.948Z,55.37
2023-02-13T06:35:11.008Z,53.89
2023-02-13T06:37:55.827Z,56.16
2023-02-13T06:40:40.694Z,55.35
2023-02-13T06:43:25.479Z,54.13
2023-02-13T06:46:10.380Z,56.67
2023-02-13T06:48:55.343Z,55.19
2023-02-13T06:51:40.177Z,54.93
2023-02-13T06:54:41.065Z,55.67
2023-02-13T06:57:29.572Z,56.31
2023-02-13T07:00:14.528Z,55.50
2023-02-13T07:02:59.483Z,55.89
2023-02-13T07:05:44.267Z,56.97
2023-02-13T07:08:29.236Z,55.54
2023-02-13T07:11:14.145Z,56.66
2023-02-13T07:13:58.957Z,56.41
2023-02-13T07:16:43.791Z,55.55
2023-02-13T07:19:28.698Z,56.52
2023-02-13T07:22:13.480Z,55.30
2023-02-13T07:24:58.493Z,56.11
2023-02-13T07:27:43.382Z,56.56
2023-02-13T07:30:28.501Z,56.05
2023-02-13T07:33:13.747Z,56.44
2023-02-13T07:35:58.798Z,56.72
2023-02-13T07:38:43.817Z,55.57
2023-02-13T07:41:28.605Z,58.82
2023-02-13T07:44:13.556Z,57.43
2023-02-13T07:46:58.485Z,56.38
2023-02-13T07:49:43.437Z,56.07
2023-02-13T07:52:28.346Z,55.66
2023-02-13T07:55:13.239Z,57.56
2023-02-13T07:57:58.392Z,57.52
2023-02-13T08:00:43.178Z,58.22
2023-02-13T08:03:28.214Z,58.13
2023-02-13T08:06:13.165Z,57.93
2023-02-13T08:08:58.317Z,57.69
2023-02-13T08:11:43.536Z,57.47
2023-02-13T08:14:28.390Z,55.85
2023-02-13T08:17:13.201Z,56.44
2023-02-13T08:19:58.117Z,56.11
2023-02-13T08:22:43.085Z,55.98
2023-02-13T08:25:27.918Z,57.12
2023-02-13T08:28:13.085Z,57.39
2023-02-13T08:30:58.111Z,56.79
2023-02-13T08:33:43.414Z,55.14
2023-02-13T08:36:28.402Z,55.10
2023-02-13T08:39:13.372Z,55.33
2023-02-13T08:41:58.355Z,55.29
2023-02-13T08:44:43.117Z,54.30
2023-02-13T08:47:28.012Z,54.66
2023-02-13T08:50:13.035Z,54.49
2023-02-13T08:52:58.004Z,54.84
2023-02-13T08:55:42.864Z,54.34
2023-02-13T08:58:28.000Z,55.08
2023-02-13T09:01:12.945Z,54.25
2023-02-13T09:03:57.905Z,56.19
2023-02-13T09:06:42.945Z,55.62
2023-02-13T09:09:28.225Z,55.89
2023-02-13T09:12:13.071Z,54.82
2023-02-13T09:14:57.823Z,53.64
2023-02-13T09:17:42.700Z,55.52
2023-02-13T09:20:27.594Z,55.67
2023-02-13T09:23:12.500Z,57.12
2023-02-13T09:25:57.747Z,55.29
2023-02-13T09:28:42.818Z,54.98
2023-02-13T09:31:29.602Z,55.93
2023-02-13T09:34:14.778Z,55.79
2023-02-13T09:36:59.653Z,54.92
2023-02-13T09:39:44.480Z,54.85
2023-02-13T09:42:29.359Z,55.77
2023-02-13T09:45:14.239Z,55.82
2023-02-13T09:47:59.165Z,56.77
2023-02-13T09:50:44.114Z,55.86
2023-02-13T09:53:28.958Z,55.62
2023-02-13T09:56:13.861Z,55.83
2023-02-13T09:58:58.777Z,55.24
2023-02-13T10:01:43.744Z,54.54
2023-02-13T10:04:28.488Z,54.70
2023-02-13T10:07:13.386Z,55.98
2023-02-13T10:09:58.373Z,56.33
2023-02-13T10:12:43.183Z,55.17
2023-02-13T10:15:28.291Z,54.47
2023-02-13T10:18:13.094Z,54.29
2023-02-13T10:20:58.185Z,56.25
2023-02-13T10:23:42.897Z,55.03
2023-02-13T10:26:27.753Z,54.32
2023-02-13T10:29:12.640Z,55.55
2023-02-13T10:31:57.575Z,54.29
2023-02-13T10:34:42.901Z,55.54
2023-02-13T10:37:27.619Z,54.42
2023-02-13T10:40:12.481Z,52.78
2023-02-13T10:42:57.339Z,53.95
2023-02-13T10:45:42.198Z,53.82
2023-02-13T10:48:27.183Z,53.26
2023-02-13T10:51:12.374Z,52.87
2023-02-13T10:53:57.265Z,52.07
2023-02-13T10:56:42.140Z,52.98
2023-02-13T10:59:27.090Z,51.91
2023-02-13T11:02:11.868Z,51.54
2023-02-13T11:04:56.827Z,52.62
2023-02-13T11:07:41.586Z,51.80
2023-02-13T11:10:26.434Z,52.12
2023-02-13T11:13:11.231Z,52.18
2023-02-13T11:15:56.543Z,50.68
2023-02-13T11:18:42.146Z,52.15
2023-02-13T11:21:26.983Z,52.44
2023-02-13T11:24:12.001Z,50.92
2023-02-13T11:26:56.859Z,52.20
2023-02-13T11:29:41.837Z,51.39
2023-02-13T11:32:26.694Z,50.76
2023-02-13T11:35:11.533Z,50.84
2023-02-13T11:37:56.340Z,52.82
2023-02-13T11:40:41.216Z,51.12
2023-02-13T11:43:26.036Z,49.61
2023-02-13T11:46:10.766Z,50.76
2023-02-13T11:48:55.818Z,50.61
2023-02-13T11:51:40.638Z,48.67
2023-02-13T11:54:25.802Z,49.24
2023-02-13T11:57:10.743Z,48.28
2023-02-13T11:59:55.712Z,48.64
2023-02-13T12:02:40.656Z,48.50
2023-02-13T12:05:25.707Z,48.01
2023-02-13T12:08:10.499Z,48.31
2023-02-13T12:10:55.460Z,47.36
2023-02-13T12:13:40.299Z,47.10
2023-02-13T12:16:25.183Z,45.87
2023-02-13T12:19:10.119Z,48.02
2023-02-13T12:21:55.029Z,47.78
2023-02-13T12:24:40.127Z,47.37
2023-02-13T12:27:25.049Z,45.55
2023-02-13T12:30:10.612Z,45.76
2023-02-13T12:32:55.549Z,45.20
2023-02-13T12:35:40.594Z,46.25
2023-02-13T12:38:25.605Z,44.05
2023-02-13T12:41:10.482Z,44.72
2023-02-13T12:43:55.388Z,46.34
2023-02-13T12:46:40.240Z,43.74
2023-02-13T12:49:25.293Z,43.33
2023-02-13T12:52:10.159Z,44.30
2023-02-13T12:54:55.117Z,44.12
2023-02-13T12:57:40.078Z,44.76
2023-02-13T13:00:25.021Z,44.39
2023-02-13T13:03:09.910Z,42.51
2023-02-13T13:06:08.986Z,41.51
2023-02-13T13:08:55.801Z,42.25
2023-02-13T13:11:40.571Z,41.19
2023-02-13T13:14:25.522Z,40.90
2023-02-13T13:17:10.291Z,40.94
2023-02-13T13:19:55.208Z,40.60
2023-02-13T13:22:40.139Z,40.75
2023-02-13T13:25:25.069Z,41.11
2023-02-13T13:28:09.897Z,40.67
2023-02-13T13:30:54.860Z,40.47
2023-02-13T13:33:40.206Z,41.81
2023-02-13T13:36:25.051Z,41.10
2023-02-13T13:39:09.957Z,39.91
2023-02-13T13:41:54.887Z,39.81
2023-02-13T13:44:39.617Z,39.53
2023-02-13T13:47:24.453Z,38.95
2023-02-13T13:50:09.456Z,40.06
2023-02-13T13:52:54.269Z,40.02
2023-02-13T13:55:39.116Z,39.41
2023-02-13T13:58:24.032Z,39.88
2023-02-13T14:01:08.949Z,39.76
2023-02-13T14:03:53.906Z,38.88
2023-02-13T14:06:38.843Z,37.87
2023-02-13T14:09:23.802Z,39.15
2023-02-13T14:12:08.772Z,38.40
2023-02-13T14:14:53.772Z,37.44
2023-02-13T14:17:38.794Z,37.56
2023-02-13T14:20:23.523Z,37.17
2023-02-13T14:23:08.354Z,37.14
2023-02-13T14:25:53.251Z,35.85
2023-02-13T14:28:38.612Z,36.40
2023-02-13T14:31:23.658Z,36.68
2023-02-13T14:34:08.673Z,35.91
2023-02-13T14:36:53.774Z,35.94
2023-02-13T14:39:38.679Z,34.07
2023-02-13T14:42:23.592Z,34.76
2023-02-13T14:45:08.461Z,32.70
2023-02-13T14:47:53.454Z,34.75
2023-02-13T14:50:38.257Z,33.07
2023-02-13T14:53:23.143Z,32.68
2023-02-13T14:56:08.035Z,32.60
2023-02-13T14:58:52.900Z,34.13
2023-02-13T15:01:37.854Z,33.66
2023-02-13T15:04:22.866Z,34.33
2023-02-13T15:07:07.649Z,35.62
2023-02-13T15:09:52.483Z,35.33
2023-02-13T15:12:37.466Z,36.30
2023-02-13T15:15:22.233Z,36.43
2023-02-13T15:18:07.136Z,36.06
2023-02-13T15:20:52.016Z,36.98
2023-02-13T15:23:36.889Z,37.17
2023-02-13T15:26:21.744Z,39.01
2023-02-13T15:29:11.334Z,40.31
2023-02-13T15:31:59.135Z,43.19
2023-02-13T15:34:44.667Z,42.36
2023-02-13T15:37:29.445Z,44.03
2023-02-13T15:40:14.386Z,42.83
2023-02-13T15:42:59.373Z,45.58
2023-02-13T15:45:44.434Z,46.30
2023-02-13T15:48:29.429Z,47.69
2023-02-13T15:51:14.311Z,46.44
2023-02-13T15:53:59.402Z,46.37
2023-02-13T15:56:44.178Z,46.46
2023-02-13T15:59:29.076Z,44.99
2023-02-13T16:02:13.918Z,44.72
2023-02-13T16:04:59.376Z,45.36
2023-02-13T16:07:44.322Z,45.65
2023-02-13T16:10:29.249Z,46.12
2023-02-13T16:13:14.151Z,43.84
2023-02-13T16:15:59.063Z,46.38
2023-02-13T16:18:44.543Z,43.97
2023-02-13T16:21:29.467Z,43.86
2023-02-13T16:24:14.392Z,44.27
2023-02-13T16:26:59.197Z,44.99
2023-02-13T16:29:44.074Z,45.97
2023-02-13T16:32:29.038Z,46.08
2023-02-13T16:35:13.844Z,44.86
2023-02-13T16:37:58.714Z,45.63
2023-02-13T16:40:43.478Z,46.63
2023-02-13T16:43:28.585Z,46.23
2023-02-13T16:46:13.688Z,45.14
2023-02-13T16:48:58.913Z,46.01
2023-02-13T16:51:44.221Z,45.10
2023-02-13T16:54:29.144Z,45.76
2023-02-13T16:57:14.064Z,46.49
2023-02-13T16:59:59.009Z,45.61
2023-02-13T17:02:44.086Z,46.28
2023-02-13T17:05:28.925Z,46.48
2023-02-13T17:08:13.809Z,47.30
2023-02-13T17:10:59.058Z,47.39
2023-02-13T17:13:44.593Z,48.85
2023-02-13T17:16:29.530Z,46.95
2023-02-13T17:19:14.574Z,46.47
2023-02-13T17:21:59.385Z,47.66
2023-02-13T17:24:44.352Z,47.70
2023-02-13T17:27:29.128Z,49.85
2023-02-13T17:30:14.047Z,50.75
2023-02-13T17:32:58.981Z,49.95
2023-02-13T17:35:43.990Z,49.56
2023-02-13T17:38:28.900Z,49.62
2023-02-13T17:41:13.797Z,51.38
2023-02-13T17:43:58.601Z,52.26
2023-02-13T17:46:43.631Z,52.57
2023-02-13T17:49:28.463Z,50.76
2023-02-13T17:52:13.558Z,50.13
2023-02-13T17:54:58.440Z,48.61
2023-02-13T17:57:43.494Z,47.00
2023-02-13T18:00:28.378Z,44.73
2023-02-13T18:03:13.377Z,44.13
2023-02-13T18:05:58.425Z,42.05
2023-02-13T18:08:43.435Z,40.64
2023-02-13T18:11:28.401Z,39.82
2023-02-13T18:14:13.233Z,40.83
2023-02-13T18:16:58.229Z,41.50
2023-02-13T18:19:43.121Z,41.69
2023-02-13T18:22:27.988Z,43.52
2023-02-13T18:25:12.896Z,44.29
2023-02-13T18:27:57.844Z,42.04
2023-02-13T18:30:43.040Z,42.87
2023-02-13T18:33:28.193Z,43.10
2023-02-13T18:36:13.188Z,43.43
2023-02-13T18:38:58.022Z,42.32
2023-02-13T18:41:42.976Z,42.06
2023-02-13T18:44:28.862Z,42.77
2023-02-13T18:47:14.263Z,42.73
2023-02-13T18:49:59.237Z,43.55
2023-02-13T18:52:44.195Z,43.95
2023-02-13T18:55:29.287Z,43.94
2023-02-13T18:58:14.144Z,44.61
2023-02-13T19:00:59.250Z,43.73
2023-02-13T19:03:44.341Z,44.57
2023-02-13T19:06:29.242Z,43.76
2023-02-13T19:09:14.133Z,43.56
2023-02-13T19:11:58.969Z,44.69
2023-02-13T19:14:43.968Z,43.86
2023-02-13T19:17:28.793Z,45.11
2023-02-13T19:20:16.567Z,45.10
2023-02-13T19:23:01.465Z,46.35
2023-02-13T19:25:46.280Z,46.94
2023-02-13T19:28:31.308Z,48.52
2023-02-13T19:31:16.253Z,47.21
2023-02-13T19:34:01.199Z,47.79
2023-02-13T19:36:46.078Z,47.72
2023-02-13T19:39:30.938Z,48.10
2023-02-13T19:42:15.837Z,50.83
2023-02-13T19:45:00.885Z,48.99
2023-02-13T19:47:45.658Z,49.94
2023-02-13T19:50:30.470Z,49.76
2023-02-13T19:53:15.206Z,54.65
2023-02-13T19:56:00.176Z,55.48
2023-02-13T19:58:45.129Z,57.43
2023-02-13T20:01:30.114Z,55.84
2023-02-13T20:04:15.557Z,57.47
2023-02-13T20:07:00.533Z,58.04
2023-02-13T20:09:45.425Z,57.08
2023-02-13T20:12:30.376Z,57.55
2023-02-13T20:15:15.263Z,58.98
2023-02-13T20:18:00.191Z,62.03
2023-02-13T20:20:45.013Z,58.93
2023-02-13T20:23:30.078Z,59.84
2023-02-13T20:26:14.965Z,58.48
2023-02-13T20:28:59.942Z,57.37
2023-02-13T20:31:44.871Z,56.27
2023-02-13T20:34:37.569Z,56.06
2023-02-13T20:37:29.200Z,56.47
2023-02-13T20:40:14.214Z,55.20
2023-02-13T20:42:59.210Z,55.75
2023-02-13T20:45:44.052Z,53.18
2023-02-13T20:48:29.005Z,51.28
2023-02-13T20:51:13.854Z,48.46
2023-02-13T20:53:58.848Z,47.21
2023-02-13T20:56:43.724Z,48.32
2023-02-13T20:59:28.580Z,48.58
2023-02-13T21:02:13.468Z,48.51
2023-02-13T21:04:58.801Z,47.60
2023-02-13T21:07:43.738Z,47.57
2023-02-13T21:10:28.599Z,47.40
2023-02-13T21:13:13.596Z,47.90
2023-02-13T21:15:58.524Z,47.15
2023-02-13T21:18:43.354Z,48.32
2023-02-13T21:21:28.177Z,48.54
2023-02-13T21:24:13.109Z,46.33
2023-02-13T21:26:57.889Z,46.45
2023-02-13T21:29:42.904Z,46.63
2023-02-13T21:32:27.949Z,46.42
2023-02-13T21:35:12.742Z,46.34
2023-02-13T21:37:57.824Z,46.84
2023-02-13T21:40:42.656Z,45.83
2023-02-13T21:43:27.540Z,46.07
2023-02-13T21:46:12.485Z,47.76
2023-02-13T21:48:57.476Z,45.90
2023-02-13T21:51:42.997Z,46.55
2023-02-13T21:54:27.878Z,47.51
2023-02-13T21:57:12.748Z,47.52
2023-02-13T21:59:57.769Z,46.59
2023-02-13T22:02:42.836Z,47.94
2023-02-13T22:05:27.588Z,46.76
2023-02-13T22:08:12.470Z,48.15
2023-02-13T22:10:57.857Z,50.87
2023-02-13T22:13:43.345Z,49.66
2023-02-13T22:16:28.260Z,50.70
2023-02-13T22:19:13.104Z,50.55
2023-02-13T22:21:57.967Z,50.16
2023-02-13T22:24:42.791Z,50.65
2023-02-13T22:27:27.773Z,51.23
2023-02-13T22:30:12.768Z,51.22
2023-02-13T22:32:57.537Z,52.10
2023-02-13T22:35:42.399Z,52.93
2023-02-13T22:38:27.293Z,50.94
2023-02-13T22:41:12.286Z,50.77
2023-02-13T22:43:57.255Z,52.12
2023-02-13T22:46:42.311Z,53.24
2023-02-13T22:49:27.621Z,54.21
2023-02-13T22:52:12.612Z,53.37
2023-02-13T22:54:57.428Z,54.83
2023-02-13T22:57:42.228Z,53.37
2023-02-13T23:00:27.120Z,55.19
2023-02-13T23:03:12.022Z,55.19
2023-02-13T23:05:56.823Z,55.96
2023-02-13T23:08:41.615Z,57.24
2023-02-13T23:11:26.708Z,57.72
2023-02-13T23:14:11.502Z,57.63
2023-02-13T23:16:56.639Z,59.25
2023-02-13T23:19:41.490Z,58.83
2023-02-13T23:22:26.461Z,60.14
2023-02-13T23:25:11.263Z,60.70
2023-02-13T23:27:56.231Z,60.13
2023-02-13T23:30:41.252Z,59.56
2023-02-13T23:33:26.097Z,57.95
2023-02-13T23:36:11.053Z,58.14
2023-02-13T23:38:55.775Z,57.69
2023-02-13T23:41:40.810Z,57.20
2023-02-13T23:44:25.754Z,56.90
2023-02-13T23:47:10.648Z,57.52
2023-02-13T23:49:55.641Z,58.62
2023-02-13T23:52:40.581Z,60.84
2023-02-13T23:55:25.549Z,60.60
2023-02-13T23:58:10.321Z,61.09
